Chilcoot, CA (96105)

4:10 AM PDT on August 21, 2014 (GMT -0700)
Main Street Loyalton | Change Station
CLOSE
Current Station
Personal Weather Station
Location: Loyalton, CA
Elevation: 4964 ft
Nearby Weather Stations
Active Advisory: Fire Weather Watch

Elev 4964 ft 39.68 °N, 120.24 °W | Updated 4 seconds ago

Clear
Clear
49.0 °F
Feels Like 49 °F
N
0.0
Wind Variable Wind from SW
Gusts 0.0 mph

Today
High -- | Low -- °F
--% Chance of Precip.
Yesterday
High -- | Low -- °F
Precip. -- in
6:18 AM 7:48 PM
Waning Crescent, 15% visible
Pressure 30.09 in
Visibility 10.0 miles
Clouds Clear
Windchill 49 °F
Dew Point 39 °F
Humidity 68%
Rainfall 0.00 in
Snow Depth Not available.
UV 0 out of 12
Pollen 6.70 out of 12
Air Quality Not available.
Flu Activity Not available.
METAR KRTS 211055Z AUTO 32006KT 10SM CLR 14/02 A3009 RMK AO2

More Conditions Fewer Conditions

Pressure 30.09 in
Visibility 10.0 miles
Clouds Clear
Windchill 49 °F
Dew Point 39 °F
Humidity 68%
Rainfall 0.00 in
Snow Depth Not available.
UV 0 out of 12
Pollen 6.70 out of 12
Air Quality Not available.
Flu Activity Not available.
METAR KRTS 211055Z AUTO 32006KT 10SM CLR 14/02 A3009 RMK AO2

More Conditions Fewer Conditions

10-Day Weather Forecast

Almanac

Astronomy

Aug. 21, 2014 Rise Set
Actual Time 6:18 AM PDT 7:48 PM PDT
Civil Twilight 5:50 AM PDT 8:16 PM PDT
Nautical Twilight 5:15 AM PDT 8:51 PM PDT
Astronomical Twilight 4:39 AM PDT 9:27 PM PDT
Moon 2:53 AM PDT 5:20 PM PDT
Length of Visible Light 14h 26m
Length of Day
13h 30m
Tomorrow will be 2m 24s shorter.
Waning Crescent, 15% of the Moon is Illuminated
Today
Waning Crescent
Aug 25
New
Sep 2
First Quarter
Sep 8
Full
Sep 15
Last Quarter

Today's Extremes

State Highs State Lows

Community

WunderPhotos

Upload Photos

1,745,872 photos uploaded!

Nearby

Snow Depth

Station Depth Elevation
Independence Creek 0 in 6500 ft
CSS Lab 1 in 6900 ft
Tahoe City Cross 0 in 6750 ft
Fallen Leaf 0 in 6300 ft
Echo Peak 1 in 7800 ft

Earthquake Activity

City Distance Mag. Time & Date
No recent earthquake activity has been reported nearby.
Minimum magnitude displayed is 2.5.

Coastal Water Temperatures

Place Temperature
No Stations Reporting

Nearby Weather Stations